Time;durP1;ratioP1;P1;durP2;ratioP2;P2;SDS_P1;SDS_P2;PMS_P1;PMS_P2;Temp;Humidity;BMP_temperature;BMP_pressure;BME280_temperature;BME280_humidity;BME280_pressure;Samples;Min_cycle;Max_cycle;Signal;HPM_P1;HPM_P2
2021/11/25 00:01:50;;;;;;;26.00;16.03;;;;;;;;;;5041814;28;20457;-63
2021/11/25 00:04:17;;;;;;;26.00;16.07;;;;;;;;;;5042549;28;20465;-63
2021/11/25 00:06:43;;;;;;;26.43;16.23;;;;;;;;;;5042535;28;20415;-63
2021/11/25 00:09:09;;;;;;;23.60;15.30;;;;;;;;;;5040923;28;20402;-63
2021/11/25 00:11:35;;;;;;;22.47;14.07;;;;;;;;;;5023692;28;20403;-63
2021/11/25 00:14:01;;;;;;;22.10;14.90;;;;;;;;;;5061988;28;20891;-63
2021/11/25 00:16:28;;;;;;;23.20;14.80;;;;;;;;;;5062180;28;20433;-62
2021/11/25 00:18:54;;;;;;;21.87;14.87;;;;;;;;;;5060535;28;20410;-64
2021/11/25 00:21:20;;;;;;;24.40;14.40;;;;;;;;;;5042277;28;20433;-62
2021/11/25 00:23:46;;;;;;;23.80;14.43;;;;;;;;;;5058136;28;20425;-64
2021/11/25 00:26:12;;;;;;;21.30;14.33;;;;;;;;;;5062591;28;20409;-63
2021/11/25 00:28:39;;;;;;;21.13;13.10;;;;;;;;;;5056860;28;20489;-62
2021/11/25 00:31:05;;;;;;;22.60;14.17;;;;;;;;;;5042062;28;20881;-64
2021/11/25 00:33:32;;;;;;;23.27;14.37;;;;;;;;;;5050441;28;20777;-64
2021/11/25 00:35:58;;;;;;;27.87;16.07;;;;;;;;;;5061164;28;20464;-64
2021/11/25 00:38:24;;;;;;;20.83;13.50;;;;;;;;;;5071989;22;20488;-64
2021/11/25 00:40:50;;;;;;;29.57;15.97;;;;;;;;;;5055428;28;20457;-64
2021/11/25 00:43:16;;;;;;;22.93;13.73;;;;;;;;;;5055245;28;20611;-64
2021/11/25 00:45:43;;;;;;;24.00;15.03;;;;;;;;;;5055344;28;20398;-64
2021/11/25 00:48:09;;;;;;;21.93;14.33;;;;;;;;;;5054939;28;20528;-65
2021/11/25 00:50:35;;;;;;;24.80;14.53;;;;;;;;;;5055500;28;20402;-64
2021/11/25 00:53:01;;;;;;;27.57;16.63;;;;;;;;;;5054504;28;20410;-64
2021/11/25 00:55:27;;;;;;;21.43;14.03;;;;;;;;;;5054810;28;20515;-64
2021/11/25 00:57:53;;;;;;;23.13;14.23;;;;;;;;;;5054592;28;20908;-65
2021/11/25 01:00:20;;;;;;;22.07;14.60;;;;;;;;;;5055272;28;20450;-64
2021/11/25 01:02:47;;;;;;;22.17;15.17;;;;;;;;;;5055157;28;20397;-64
2021/11/25 01:05:14;;;;;;;22.50;15.00;;;;;;;;;;5054916;28;20492;-64
2021/11/25 01:07:40;;;;;;;23.77;15.87;;;;;;;;;;5054494;28;20777;-65
2021/11/25 01:10:07;;;;;;;22.30;14.80;;;;;;;;;;5055025;28;20398;-64
2021/11/25 01:12:33;;;;;;;23.97;14.93;;;;;;;;;;5053430;28;20432;-64
2021/11/25 01:14:59;;;;;;;24.30;14.60;;;;;;;;;;5053597;28;20414;-64
2021/11/25 01:17:26;;;;;;;27.27;16.37;;;;;;;;;;5054078;28;20479;-64
2021/11/25 01:19:52;;;;;;;25.07;15.77;;;;;;;;;;5054904;28;20882;-65
2021/11/25 01:22:18;;;;;;;24.17;15.83;;;;;;;;;;5054818;28;20460;-64
2021/11/25 01:24:44;;;;;;;25.83;16.23;;;;;;;;;;5054604;28;20398;-64
2021/11/25 01:27:10;;;;;;;23.53;15.23;;;;;;;;;;5054245;28;20429;-64
2021/11/25 01:29:36;;;;;;;24.53;16.50;;;;;;;;;;5054423;28;20483;-65
2021/11/25 01:32:03;;;;;;;20.77;14.20;;;;;;;;;;5054363;28;20462;-65
2021/11/25 01:34:29;;;;;;;25.57;16.20;;;;;;;;;;5054292;28;20410;-64
2021/11/25 01:36:55;;;;;;;24.77;15.50;;;;;;;;;;5053947;28;20455;-65
2021/11/25 01:39:21;;;;;;;25.37;15.77;;;;;;;;;;5054113;28;20457;-64
2021/11/25 01:41:48;;;;;;;25.17;15.27;;;;;;;;;;5054585;28;20455;-64
2021/11/25 01:44:14;;;;;;;22.93;15.60;;;;;;;;;;5054311;28;20973;-65
2021/11/25 01:46:40;;;;;;;27.00;14.27;;;;;;;;;;5054086;28;20584;-65
2021/11/25 01:49:06;;;;;;;23.13;15.17;;;;;;;;;;5053788;28;20536;-65
2021/11/25 01:51:33;;;;;;;26.87;13.90;;;;;;;;;;5054317;28;20402;-64
2021/11/25 01:53:59;;;;;;;25.30;16.33;;;;;;;;;;5054012;28;20422;-64
2021/11/25 01:56:26;;;;;;;22.37;14.57;;;;;;;;;;5054360;28;20418;-65
2021/11/25 01:58:52;;;;;;;23.60;15.70;;;;;;;;;;5053764;28;20406;-65
2021/11/25 02:01:21;;;;;;;24.57;15.83;;;;;;;;;;5054011;28;20955;-64
2021/11/25 02:03:48;;;;;;;22.57;15.40;;;;;;;;;;5053664;28;20420;-64
2021/11/25 02:06:16;;;;;;;23.60;15.60;;;;;;;;;;5053865;28;20410;-64
2021/11/25 02:08:43;;;;;;;22.27;14.57;;;;;;;;;;5053765;28;20471;-64
2021/11/25 02:11:10;;;;;;;23.23;14.50;;;;;;;;;;5053707;28;20412;-64
2021/11/25 02:13:36;;;;;;;22.43;15.03;;;;;;;;;;5053426;28;20800;-65
2021/11/25 02:16:02;;;;;;;25.87;16.00;;;;;;;;;;5053892;28;20563;-64
2021/11/25 02:18:28;;;;;;;27.87;16.57;;;;;;;;;;5053241;28;20433;-64
2021/11/25 02:20:56;;;;;;;25.60;16.80;;;;;;;;;;5053522;28;20445;-64
2021/11/25 02:23:22;;;;;;;30.37;17.83;;;;;;;;;;5052715;28;20425;-64
2021/11/25 02:25:49;;;;;;;25.10;15.50;;;;;;;;;;5053557;28;20402;-65
2021/11/25 02:28:18;;;;;;;26.00;16.37;;;;;;;;;;5049733;28;20503;-66
2021/11/25 02:30:44;;;;;;;24.30;15.97;;;;;;;;;;5041701;28;20410;-65
2021/11/25 02:33:10;;;;;;;27.63;17.20;;;;;;;;;;5045276;28;20536;-65
2021/11/25 02:35:39;;;;;;;23.93;15.30;;;;;;;;;;5053394;28;20472;-65
2021/11/25 02:38:05;;;;;;;22.13;14.90;;;;;;;;;;5052846;28;20477;-65
2021/11/25 02:40:33;;;;;;;27.13;16.30;;;;;;;;;;5053334;28;20457;-65
2021/11/25 02:43:00;;;;;;;25.07;16.13;;;;;;;;;;5052797;28;20412;-65
2021/11/25 02:45:27;;;;;;;28.30;16.77;;;;;;;;;;5053232;28;20413;-64
2021/11/25 02:47:53;;;;;;;23.57;15.57;;;;;;;;;;5052659;28;20495;-64
2021/11/25 02:50:20;;;;;;;22.90;13.97;;;;;;;;;;5051592;28;20914;-65
2021/11/25 02:52:46;;;;;;;23.63;14.90;;;;;;;;;;5052465;28;20397;-65
2021/11/25 02:55:13;;;;;;;22.97;14.77;;;;;;;;;;5052648;28;20500;-65
2021/11/25 02:57:40;;;;;;;25.80;15.50;;;;;;;;;;5052644;28;20867;-64
2021/11/25 03:00:08;;;;;;;23.57;15.40;;;;;;;;;;5052692;28;20470;-65
2021/11/25 03:02:34;;;;;;;26.70;16.37;;;;;;;;;;5032846;28;20759;-65
2021/11/25 03:05:00;;;;;;;26.77;15.50;;;;;;;;;;5046897;28;20413;-64
2021/11/25 03:07:26;;;;;;;27.73;16.60;;;;;;;;;;5052525;28;20457;-64
2021/11/25 03:09:52;;;;;;;24.87;15.80;;;;;;;;;;5052583;28;20471;-66
2021/11/25 03:12:19;;;;;;;27.90;16.83;;;;;;;;;;5052855;28;20402;-64
2021/11/25 03:14:45;;;;;;;26.30;15.80;;;;;;;;;;5052328;28;20445;-64
2021/11/25 03:17:11;;;;;;;22.40;14.87;;;;;;;;;;5051772;28;20426;-64
2021/11/25 03:19:37;;;;;;;25.80;15.73;;;;;;;;;;5053096;28;20461;-64
2021/11/25 03:22:03;;;;;;;22.90;14.30;;;;;;;;;;5053142;28;20409;-64
2021/11/25 03:24:29;;;;;;;23.33;14.43;;;;;;;;;;5052573;28;20409;-64
2021/11/25 03:26:55;;;;;;;25.50;14.40;;;;;;;;;;5052238;28;20440;-64
2021/11/25 03:29:21;;;;;;;23.80;17.30;;;;;;;;;;5052570;28;20441;-65
2021/11/25 03:31:47;;;;;;;24.10;14.27;;;;;;;;;;5052760;28;20907;-64
2021/11/25 03:34:13;;;;;;;20.07;13.23;;;;;;;;;;5052840;28;20919;-65
2021/11/25 03:36:39;;;;;;;22.47;15.13;;;;;;;;;;5051626;28;20460;-65
2021/11/25 03:39:05;;;;;;;24.77;14.60;;;;;;;;;;5052463;28;20394;-64
2021/11/25 03:41:31;;;;;;;26.43;15.30;;;;;;;;;;5052319;28;20891;-65
2021/11/25 03:43:58;;;;;;;30.80;16.80;;;;;;;;;;5052502;28;20443;-64
2021/11/25 03:46:24;;;;;;;26.50;17.63;;;;;;;;;;5051709;28;20437;-65
2021/11/25 03:48:50;;;;;;;24.53;15.10;;;;;;;;;;5052328;28;20397;-64
2021/11/25 03:51:17;;;;;;;20.70;14.10;;;;;;;;;;5051909;28;20406;-65
2021/11/25 03:53:45;;;;;;;23.73;14.87;;;;;;;;;;5052279;28;20394;-65
2021/11/25 03:56:11;;;;;;;21.83;15.77;;;;;;;;;;5051636;28;20423;-65
2021/11/25 03:58:38;;;;;;;21.57;15.00;;;;;;;;;;5047741;28;20461;-64
2021/11/25 04:01:04;;;;;;;23.97;15.13;;;;;;;;;;5043401;28;20817;-65
2021/11/25 04:03:30;;;;;;;25.27;14.80;;;;;;;;;;5052237;28;20818;-65
2021/11/25 04:05:56;;;;;;;23.60;12.57;;;;;;;;;;5050069;28;20414;-64
2021/11/25 04:08:22;;;;;;;18.97;13.30;;;;;;;;;;5051860;28;20936;-64
2021/11/25 04:10:48;;;;;;;21.97;15.00;;;;;;;;;;5052209;28;20413;-65
2021/11/25 04:13:14;;;;;;;19.27;13.43;;;;;;;;;;5052264;28;20402;-65
2021/11/25 04:15:40;;;;;;;22.87;15.47;;;;;;;;;;5051590;28;20414;-64
2021/11/25 04:18:06;;;;;;;24.27;14.53;;;;;;;;;;5052002;28;20432;-64
2021/11/25 04:20:34;;;;;;;21.27;14.17;;;;;;;;;;5051901;28;20532;-64
2021/11/25 04:23:00;;;;;;;23.53;14.00;;;;;;;;;;5050762;28;20402;-64
2021/11/25 04:25:26;;;;;;;21.07;13.80;;;;;;;;;;5051399;28;20416;-64
2021/11/25 04:27:52;;;;;;;21.43;13.87;;;;;;;;;;5052056;28;20509;-64
2021/11/25 04:35:35;;;;;;;25.17;14.20;;;;;;;;;;5055419;28;20490;-65
2021/11/25 04:38:03;;;;;;;24.13;14.70;;;;;;;;;;5055333;28;20503;-64
2021/11/25 04:40:34;;;;;;;25.93;13.80;;;;;;;;;;5055821;28;20859;-64
2021/11/25 04:43:00;;;;;;;23.73;13.20;;;;;;;;;;5055461;28;20398;-65
2021/11/25 04:45:26;;;;;;;25.00;14.60;;;;;;;;;;5054894;28;20421;-65
2021/11/25 04:47:52;;;;;;;23.60;14.60;;;;;;;;;;5055168;28;20421;-65
2021/11/25 04:50:20;;;;;;;20.10;12.93;;;;;;;;;;5055544;28;20398;-65
2021/11/25 04:52:46;;;;;;;26.47;15.30;;;;;;;;;;5055257;28;20402;-65
2021/11/25 04:55:13;;;;;;;19.10;12.00;;;;;;;;;;5049246;28;20433;-65
2021/11/25 04:57:39;;;;;;;21.10;13.60;;;;;;;;;;5043352;28;20430;-65
2021/11/25 05:00:06;;;;;;;21.30;14.17;;;;;;;;;;5055102;28;20502;-65
2021/11/25 05:02:33;;;;;;;22.40;14.63;;;;;;;;;;5053746;28;20480;-65
2021/11/25 05:04:59;;;;;;;21.40;14.37;;;;;;;;;;5054946;28;20406;-65
2021/11/25 05:07:25;;;;;;;20.67;13.10;;;;;;;;;;5055328;28;20452;-65
2021/11/25 05:09:51;;;;;;;22.73;14.27;;;;;;;;;;5055530;28;20398;-65
2021/11/25 05:12:18;;;;;;;20.77;13.63;;;;;;;;;;5055440;28;20821;-65
2021/11/25 05:14:44;;;;;;;23.90;13.87;;;;;;;;;;5055274;28;20405;-65
2021/11/25 05:17:10;;;;;;;23.83;14.60;;;;;;;;;;5054956;28;20449;-65
2021/11/25 05:19:36;;;;;;;21.00;13.47;;;;;;;;;;5055180;28;20446;-65
2021/11/25 05:22:02;;;;;;;28.27;17.37;;;;;;;;;;5055208;28;20394;-65
2021/11/25 05:24:28;;;;;;;21.97;13.47;;;;;;;;;;5054675;28;20402;-65
2021/11/25 05:26:54;;;;;;;22.10;14.37;;;;;;;;;;5054797;28;20529;-65
2021/11/25 05:29:24;;;;;;;19.40;13.00;;;;;;;;;;5055217;28;20809;-65
2021/11/25 05:31:50;;;;;;;24.37;14.77;;;;;;;;;;5054949;28;20398;-65
2021/11/25 05:34:17;;;;;;;19.70;14.30;;;;;;;;;;5054574;28;20434;-65
2021/11/25 05:36:44;;;;;;;27.03;14.43;;;;;;;;;;5054239;28;20426;-66
2021/11/25 05:39:10;;;;;;;21.60;13.93;;;;;;;;;;5054624;28;20406;-65
2021/11/25 05:41:37;;;;;;;22.53;14.50;;;;;;;;;;5054632;28;20398;-65
2021/11/25 05:44:04;;;;;;;25.50;15.20;;;;;;;;;;5054148;28;20414;-65
2021/11/25 05:46:30;;;;;;;26.07;15.60;;;;;;;;;;5054701;28;20822;-65
2021/11/25 05:48:56;;;;;;;24.50;13.80;;;;;;;;;;5054550;28;20410;-65
2021/11/25 05:51:22;;;;;;;23.17;14.47;;;;;;;;;;5054275;28;20444;-65
2021/11/25 05:53:48;;;;;;;25.53;16.07;;;;;;;;;;5053985;28;20409;-65
2021/11/25 05:56:14;;;;;;;24.70;16.40;;;;;;;;;;5053893;28;20445;-65
2021/11/25 05:58:40;;;;;;;31.50;15.40;;;;;;;;;;5054130;28;20430;-65
2021/11/25 06:01:06;;;;;;;24.40;14.40;;;;;;;;;;5052655;28;20765;-65
2021/11/25 06:03:33;;;;;;;25.70;14.67;;;;;;;;;;5053417;28;20753;-65
2021/11/25 06:05:59;;;;;;;21.77;14.53;;;;;;;;;;5053714;28;20402;-65
2021/11/25 06:08:25;;;;;;;19.17;12.20;;;;;;;;;;5054356;28;20503;-65
2021/11/25 06:10:52;;;;;;;21.10;13.13;;;;;;;;;;5054089;28;20437;-65
2021/11/25 06:13:18;;;;;;;21.53;12.90;;;;;;;;;;5053671;28;20903;-65
2021/11/25 06:15:46;;;;;;;20.30;12.10;;;;;;;;;;5054051;28;20781;-65
2021/11/25 06:18:13;;;;;;;21.00;13.70;;;;;;;;;;5053475;28;20444;-65
2021/11/25 06:20:39;;;;;;;22.27;13.73;;;;;;;;;;5053812;28;20446;-65
2021/11/25 06:23:06;;;;;;;25.93;15.13;;;;;;;;;;5053628;28;20467;-65
2021/11/25 06:25:32;;;;;;;21.80;13.63;;;;;;;;;;5053999;28;20473;-65
2021/11/25 06:27:58;;;;;;;21.17;13.13;;;;;;;;;;5053515;28;21024;-65
2021/11/25 06:30:24;;;;;;;23.27;14.30;;;;;;;;;;5053695;28;20406;-65
2021/11/25 06:32:51;;;;;;;26.70;11.90;;;;;;;;;;5053789;28;20410;-65
2021/11/25 06:35:18;;;;;;;20.07;12.67;;;;;;;;;;5053353;28;20412;-65
2021/11/25 06:37:47;;;;;;;23.73;12.23;;;;;;;;;;5052199;28;20464;-68
2021/11/25 06:40:15;;;;;;;27.23;13.50;;;;;;;;;;5052399;28;20512;-66
2021/11/25 06:42:41;;;;;;;23.73;13.00;;;;;;;;;;5053135;28;20402;-66
2021/11/25 06:45:07;;;;;;;21.33;14.33;;;;;;;;;;5051041;28;20776;-66
2021/11/25 06:47:34;;;;;;;19.90;12.60;;;;;;;;;;5052417;28;20429;-67
2021/11/25 06:50:00;;;;;;;20.67;11.87;;;;;;;;;;5053003;28;20418;-65
2021/11/25 06:52:26;;;;;;;18.50;12.57;;;;;;;;;;5051293;28;20410;-66
2021/11/25 06:54:52;;;;;;;21.53;13.53;;;;;;;;;;5052912;28;20441;-65
2021/11/25 06:57:18;;;;;;;19.00;12.23;;;;;;;;;;5052155;28;20421;-65
2021/11/25 06:59:44;;;;;;;19.73;12.47;;;;;;;;;;5052374;28;20796;-66
2021/11/25 07:02:10;;;;;;;19.47;11.27;;;;;;;;;;5050426;28;21000;-73
2021/11/25 07:04:36;;;;;;;18.00;11.57;;;;;;;;;;5053151;28;20485;-69
2021/11/25 07:07:03;;;;;;;22.00;11.87;;;;;;;;;;5052940;28;20434;-70
2021/11/25 07:09:29;;;;;;;18.90;12.17;;;;;;;;;;5053005;28;20390;-71
2021/11/25 07:11:55;;;;;;;21.07;12.60;;;;;;;;;;5052642;28;20402;-71
2021/11/25 07:14:21;;;;;;;19.73;12.00;;;;;;;;;;5051747;28;20928;-71
2021/11/25 07:16:47;;;;;;;21.33;12.93;;;;;;;;;;5052916;28;20540;-71
2021/11/25 07:19:13;;;;;;;25.30;11.63;;;;;;;;;;5053181;28;20418;-70
2021/11/25 07:21:39;;;;;;;20.80;13.10;;;;;;;;;;5052197;28;20422;-68
2021/11/25 07:24:07;;;;;;;17.70;12.13;;;;;;;;;;5052884;28;20453;-67
2021/11/25 07:26:33;;;;;;;19.13;10.73;;;;;;;;;;5053058;28;20770;-69
2021/11/25 07:28:59;;;;;;;16.20;11.43;;;;;;;;;;5052709;28;20468;-70
2021/11/25 07:31:29;;;;;;;17.97;11.70;;;;;;;;;;5052463;28;20484;-69
2021/11/25 07:33:56;;;;;;;22.33;13.40;;;;;;;;;;5052629;28;20413;-68
2021/11/25 07:36:22;;;;;;;19.30;11.93;;;;;;;;;;5053048;28;20406;-69
2021/11/25 07:38:48;;;;;;;22.50;12.17;;;;;;;;;;5051701;28;20520;-68
2021/11/25 07:41:14;;;;;;;17.43;11.47;;;;;;;;;;5052379;28;20461;-71
2021/11/25 07:43:40;;;;;;;19.47;12.80;;;;;;;;;;5052566;28;20409;-70
2021/11/25 07:46:06;;;;;;;18.40;12.30;;;;;;;;;;5046715;28;20403;-71
2021/11/25 07:48:32;;;;;;;19.90;12.07;;;;;;;;;;5046150;28;20789;-72
2021/11/25 07:50:59;;;;;;;21.17;12.70;;;;;;;;;;5052266;28;20799;-71
2021/11/25 07:53:27;;;;;;;21.17;12.50;;;;;;;;;;5052877;28;20718;-70
2021/11/25 07:55:53;;;;;;;22.40;12.30;;;;;;;;;;5050718;28;20426;-70
2021/11/25 07:58:20;;;;;;;23.23;13.73;;;;;;;;;;5051249;28;20943;-70
2021/11/25 08:00:46;;;;;;;19.30;12.87;;;;;;;;;;5051489;28;20543;-68
2021/11/25 08:03:13;;;;;;;22.40;13.47;;;;;;;;;;5053590;28;20472;-67
2021/11/25 08:05:39;;;;;;;19.97;12.27;;;;;;;;;;5055066;28;20846;-71
2021/11/25 08:08:08;;;;;;;21.40;13.47;;;;;;;;;;5056069;28;20524;-71
2021/11/25 08:10:34;;;;;;;19.97;14.13;;;;;;;;;;5056336;28;20438;-69
2021/11/25 08:13:03;;;;;;;23.33;11.90;;;;;;;;;;5046214;28;20418;-65
2021/11/25 08:15:29;;;;;;;21.13;12.30;;;;;;;;;;5048565;28;20475;-65
2021/11/25 08:17:56;;;;;;;20.70;12.10;;;;;;;;;;5051369;28;21089;-69
2021/11/25 08:20:22;;;;;;;21.30;12.93;;;;;;;;;;5043169;28;20462;-72
2021/11/25 08:22:48;;;;;;;18.70;11.97;;;;;;;;;;5050319;28;20818;-68
2021/11/25 08:25:14;;;;;;;16.13;11.23;;;;;;;;;;5049769;28;20424;-69
2021/11/25 08:27:40;;;;;;;14.13;9.80;;;;;;;;;;5049028;28;20445;-70
2021/11/25 08:30:08;;;;;;;16.13;11.43;;;;;;;;;;5052771;28;20423;-70
2021/11/25 08:32:34;;;;;;;17.40;10.90;;;;;;;;;;5053639;28;20430;-70
2021/11/25 08:35:00;;;;;;;16.77;10.70;;;;;;;;;;5054567;28;20884;-70
2021/11/25 08:37:27;;;;;;;17.73;11.73;;;;;;;;;;5053420;28;20464;-73
2021/11/25 08:39:53;;;;;;;15.53;10.37;;;;;;;;;;5051731;28;20477;-75
2021/11/25 08:42:19;;;;;;;13.23;10.17;;;;;;;;;;5051431;28;20486;-69
2021/11/25 08:44:45;;;;;;;18.50;11.07;;;;;;;;;;5055502;28;20418;-69
2021/11/25 08:47:11;;;;;;;17.93;11.30;;;;;;;;;;5052552;28;20458;-72
2021/11/25 08:49:37;;;;;;;18.70;11.60;;;;;;;;;;5051946;28;20425;-69
2021/11/25 08:52:05;;;;;;;15.20;10.73;;;;;;;;;;5053516;28;20429;-72
2021/11/25 08:54:31;;;;;;;16.10;10.67;;;;;;;;;;5050361;28;20483;-72
2021/11/25 08:56:57;;;;;;;19.53;11.07;;;;;;;;;;5054243;28;20444;-71
2021/11/25 08:59:23;;;;;;;16.67;11.40;;;;;;;;;;5054745;28;20791;-67
2021/11/25 09:01:50;;;;;;;18.17;11.20;;;;;;;;;;5053930;28;20461;-69
2021/11/25 09:04:16;;;;;;;17.20;10.63;;;;;;;;;;5050639;28;20849;-69
2021/11/25 09:06:42;;;;;;;17.07;10.77;;;;;;;;;;5051251;28;20445;-71
2021/11/25 09:09:09;;;;;;;15.43;9.83;;;;;;;;;;5052355;28;20452;-70
2021/11/25 09:11:35;;;;;;;17.70;11.37;;;;;;;;;;5053479;28;20507;-72
2021/11/25 09:14:01;;;;;;;20.33;13.27;;;;;;;;;;5052229;28;20426;-69
2021/11/25 09:16:27;;;;;;;16.73;11.23;;;;;;;;;;5052435;28;20433;-70
2021/11/25 09:18:53;;;;;;;23.67;12.80;;;;;;;;;;5044355;28;20422;-70
2021/11/25 09:21:21;;;;;;;18.87;11.17;;;;;;;;;;5051340;28;20493;-73
2021/11/25 09:23:48;;;;;;;22.93;12.50;;;;;;;;;;5053257;28;20440;-71
2021/11/25 09:26:14;;;;;;;21.10;12.50;;;;;;;;;;5052143;28;20425;-73
2021/11/25 09:28:40;;;;;;;17.67;11.57;;;;;;;;;;5049884;28;20948;-72
2021/11/25 09:31:07;;;;;;;16.60;10.67;;;;;;;;;;5047363;28;20924;-72
2021/11/25 09:33:33;;;;;;;17.17;11.33;;;;;;;;;;5053496;28;20448;-69
2021/11/25 09:35:59;;;;;;;19.63;12.37;;;;;;;;;;5053419;28;20425;-71
2021/11/25 09:38:26;;;;;;;21.47;14.17;;;;;;;;;;5050745;28;20465;-69
2021/11/25 09:40:52;;;;;;;23.40;12.70;;;;;;;;;;5051806;28;20508;-72
2021/11/25 09:43:24;;;;;;;18.53;12.90;;;;;;;;;;5052181;28;20422;-71
2021/11/25 09:45:50;;;;;;;22.43;14.10;;;;;;;;;;5052795;28;21079;-69
2021/11/25 09:48:17;;;;;;;16.73;12.17;;;;;;;;;;5050636;28;20441;-71
2021/11/25 09:50:44;;;;;;;17.10;12.33;;;;;;;;;;5051585;28;20414;-72
2021/11/25 09:53:12;;;;;;;16.73;11.33;;;;;;;;;;5047727;28;20425;-72
2021/11/25 09:55:40;;;;;;;19.63;12.90;;;;;;;;;;5049862;28;20491;-71
2021/11/25 09:58:06;;;;;;;19.23;12.60;;;;;;;;;;5049141;28;20449;-72
2021/11/25 10:00:33;;;;;;;20.43;11.77;;;;;;;;;;5047592;28;20459;-72
2021/11/25 10:03:00;;;;;;;22.23;13.33;;;;;;;;;;5053424;28;20421;-71
2021/11/25 10:05:26;;;;;;;22.00;12.60;;;;;;;;;;5041990;28;20414;-71
2021/11/25 10:07:52;;;;;;;23.10;13.67;;;;;;;;;;5049244;28;20832;-71
2021/11/25 10:10:18;;;;;;;18.57;12.17;;;;;;;;;;5050246;28;20480;-72
2021/11/25 10:12:47;;;;;;;18.90;12.87;;;;;;;;;;5047059;28;20856;-72
2021/11/25 10:15:31;;;;;;;20.03;13.50;;;;;;;;;;5048552;28;20771;-71
2021/11/25 10:17:59;;;;;;;16.20;12.10;;;;;;;;;;5045422;28;20933;-72
2021/11/25 10:20:28;;;;;;;18.03;12.23;;;;;;;;;;5051221;28;21039;-68
2021/11/25 10:23:04;;;;;;;15.87;12.23;;;;;;;;;;5050029;28;20970;-68
2021/11/25 10:25:44;;;;;;;20.10;12.97;;;;;;;;;;5052171;28;20460;-70
2021/11/25 10:28:17;;;;;;;17.27;11.33;;;;;;;;;;5048453;28;20439;-67
2021/11/25 10:30:43;;;;;;;16.80;11.60;;;;;;;;;;5048584;28;20437;-71
2021/11/25 10:33:09;;;;;;;18.90;13.17;;;;;;;;;;5052046;28;20410;-71
2021/11/25 10:36:15;;;;;;;18.50;11.93;;;;;;;;;;5052269;28;20485;-70
2021/11/25 10:38:35;;;;;;;22.83;13.10;;;;;;;;;;5048863;28;20453;-70
2021/11/25 10:41:12;;;;;;;22.63;12.30;;;;;;;;;;5051345;28;20544;-70
2021/11/25 10:43:38;;;;;;;19.97;12.50;;;;;;;;;;5049015;28;20422;-67
2021/11/25 10:46:04;;;;;;;20.33;12.80;;;;;;;;;;5046610;28;20524;-67
2021/11/25 10:48:35;;;;;;;18.53;12.07;;;;;;;;;;5048481;28;20781;-69
2021/11/25 10:51:01;;;;;;;22.53;13.50;;;;;;;;;;5042375;28;20493;-69
2021/11/25 10:53:27;;;;;;;17.20;12.27;;;;;;;;;;5050397;28;20417;-69
2021/11/25 10:56:04;;;;;;;22.93;13.10;;;;;;;;;;5049932;28;20456;-69
2021/11/25 10:58:30;;;;;;;21.60;13.30;;;;;;;;;;5044888;28;20444;-68
2021/11/25 11:00:56;;;;;;;18.57;11.47;;;;;;;;;;5046185;28;20858;-67
2021/11/25 11:03:29;;;;;;;19.47;12.70;;;;;;;;;;5050147;28;20869;-68
2021/11/25 11:06:01;;;;;;;20.80;12.40;;;;;;;;;;5052352;28;20519;-68
2021/11/25 11:08:31;;;;;;;18.83;12.33;;;;;;;;;;5045209;28;20449;-69
2021/11/25 11:10:57;;;;;;;17.77;12.17;;;;;;;;;;5045382;28;20423;-69
2021/11/25 11:15:56;;;;;;;17.33;11.47;;;;;;;;;;5045303;28;20426;-69
2021/11/25 11:21:48;;;;;;;18.80;12.20;;;;;;;;;;5047535;28;20922;-67
2021/11/25 11:24:25;;;;;;;17.00;11.20;;;;;;;;;;4986579;28;20926;-67
2021/11/25 11:26:52;;;;;;;18.80;12.27;;;;;;;;;;5008105;28;20478;-67
2021/11/25 11:29:20;;;;;;;23.03;14.10;;;;;;;;;;5031199;28;20777;-68
2021/11/25 11:31:47;;;;;;;21.83;14.77;;;;;;;;;;5043708;28;20425;-70
2021/11/25 11:34:15;;;;;;;19.90;12.03;;;;;;;;;;5048283;28;20437;-68
2021/11/25 11:36:42;;;;;;;18.30;12.13;;;;;;;;;;5049048;28;20574;-69
2021/11/25 11:39:10;;;;;;;21.90;13.87;;;;;;;;;;5053143;28;20417;-70
2021/11/25 11:41:36;;;;;;;18.70;13.80;;;;;;;;;;5053408;28;20465;-69
2021/11/25 11:44:03;;;;;;;19.90;13.80;;;;;;;;;;5055285;28;20429;-71
2021/11/25 11:46:30;;;;;;;20.60;14.00;;;;;;;;;;5046630;28;20417;-66
2021/11/25 11:49:01;;;;;;;19.87;13.37;;;;;;;;;;5054903;28;20421;-69
2021/11/25 11:51:27;;;;;;;24.73;14.80;;;;;;;;;;5052982;28;20505;-69
2021/11/25 11:53:56;;;;;;;25.37;14.83;;;;;;;;;;5053981;28;20454;-70
2021/11/25 11:56:42;;;;;;;20.97;13.87;;;;;;;;;;5051301;28;20571;-67
2021/11/25 11:59:09;;;;;;;21.57;13.93;;;;;;;;;;5054803;28;20436;-68
2021/11/25 12:01:37;;;;;;;23.70;14.50;;;;;;;;;;5050899;28;20461;-69
2021/11/25 12:04:09;;;;;;;21.47;14.07;;;;;;;;;;5045651;28;20438;-67
2021/11/25 12:06:54;;;;;;;25.27;14.90;;;;;;;;;;5052228;28;20418;-67
2021/11/25 12:09:20;;;;;;;22.80;14.20;;;;;;;;;;5049906;28;20436;-68
2021/11/25 12:11:50;;;;;;;23.27;14.43;;;;;;;;;;5054061;28;20453;-69
2021/11/25 12:14:16;;;;;;;20.17;13.77;;;;;;;;;;5053121;28;20418;-69
2021/11/25 12:17:01;;;;;;;19.80;13.37;;;;;;;;;;5052271;28;20441;-67
2021/11/25 12:19:35;;;;;;;22.97;14.73;;;;;;;;;;5054480;28;20425;-68
2021/11/25 12:22:15;;;;;;;23.93;15.30;;;;;;;;;;5055555;28;20924;-70
2021/11/25 12:24:45;;;;;;;24.00;16.33;;;;;;;;;;5054963;28;20414;-68
2021/11/25 12:29:49;;;;;;;28.03;15.30;;;;;;;;;;5050730;28;20504;-71
2021/11/25 12:32:28;;;;;;;27.67;16.10;;;;;;;;;;5054985;28;20404;-69
2021/11/25 12:34:55;;;;;;;25.20;15.20;;;;;;;;;;5054134;28;20418;-70
2021/11/25 12:37:40;;;;;;;23.90;14.13;;;;;;;;;;5054859;28;20507;-67
2021/11/25 12:40:06;;;;;;;31.33;16.70;;;;;;;;;;5054242;28;20465;-69
2021/11/25 12:42:32;;;;;;;26.43;15.20;;;;;;;;;;5054754;28;20826;-67
2021/11/25 12:44:58;;;;;;;28.60;16.03;;;;;;;;;;5054859;28;20824;-68
2021/11/25 12:47:24;;;;;;;28.60;17.40;;;;;;;;;;5053900;28;20433;-67
2021/11/25 12:49:50;;;;;;;31.83;17.70;;;;;;;;;;5048049;28;20453;-67
2021/11/25 12:52:32;;;;;;;25.70;15.50;;;;;;;;;;5054094;28;20429;-68
2021/11/25 12:55:09;;;;;;;32.07;16.70;;;;;;;;;;5052306;28;20418;-67
2021/11/25 12:57:50;;;;;;;31.00;19.00;;;;;;;;;;5050345;28;20437;-65
2021/11/25 13:00:18;;;;;;;28.67;16.17;;;;;;;;;;5046725;28;20449;-65
2021/11/25 13:02:44;;;;;;;27.47;16.17;;;;;;;;;;5053269;28;20425;-64
2021/11/25 13:05:10;;;;;;;27.53;16.43;;;;;;;;;;5053116;28;20414;-63
2021/11/25 13:07:47;;;;;;;22.93;13.73;;;;;;;;;;5053470;28;20434;-63
2021/11/25 13:10:39;;;;;;;27.37;15.93;;;;;;;;;;5052893;28;20847;-62
2021/11/25 13:13:08;;;;;;;31.57;15.30;;;;;;;;;;5048910;28;20826;-63
2021/11/25 13:15:34;;;;;;;26.03;15.80;;;;;;;;;;5051870;28;20480;-68
2021/11/25 13:18:02;;;;;;;25.75;15.30;;;;;;;;;;5052599;28;20423;-66
2021/11/25 13:20:45;;;;;;;24.27;15.93;;;;;;;;;;5052833;28;20234;-67
2021/11/25 13:23:13;;;;;;;23.50;15.97;;;;;;;;;;5044827;28;20485;-68
2021/11/25 13:25:48;;;;;;;25.40;15.33;;;;;;;;;;5051584;28;20414;-68
2021/11/25 13:28:25;;;;;;;23.00;14.40;;;;;;;;;;5054062;28;20525;-68
2021/11/25 13:31:09;;;;;;;21.73;14.53;;;;;;;;;;5054241;28;20422;-68
2021/11/25 13:33:54;;;;;;;20.70;13.17;;;;;;;;;;5048215;28;20413;-69
2021/11/25 13:36:21;;;;;;;35.30;14.87;;;;;;;;;;5050928;28;20432;-68
2021/11/25 13:38:54;;;;;;;23.00;14.07;;;;;;;;;;5053550;28;20430;-64
2021/11/25 13:41:20;;;;;;;21.13;14.33;;;;;;;;;;5053169;28;20530;-64
2021/11/25 13:43:48;;;;;;;28.07;16.20;;;;;;;;;;5046537;28;20623;-64
2021/11/25 13:46:14;;;;;;;21.43;14.30;;;;;;;;;;5052259;28;21009;-64
2021/11/25 13:48:44;;;;;;;22.70;14.53;;;;;;;;;;5052983;28;20522;-64
2021/11/25 13:51:21;;;;;;;25.97;15.33;;;;;;;;;;5051104;28;20414;-64
2021/11/25 13:53:47;;;;;;;21.80;14.30;;;;;;;;;;5053465;28;20430;-66
2021/11/25 13:56:13;;;;;;;22.07;13.20;;;;;;;;;;5052639;28;20422;-65
2021/11/25 13:58:39;;;;;;;21.33;13.90;;;;;;;;;;5053240;28;20441;-65
2021/11/25 14:01:10;;;;;;;22.63;12.63;;;;;;;;;;5051878;28;20858;-66
2021/11/25 14:03:36;;;;;;;21.57;13.37;;;;;;;;;;5049151;28;20414;-65
2021/11/25 14:06:05;;;;;;;27.73;15.07;;;;;;;;;;5048278;28;20410;-65
2021/11/25 14:08:32;;;;;;;22.90;12.93;;;;;;;;;;5051112;28;20460;-65
2021/11/25 14:11:11;;;;;;;22.00;12.90;;;;;;;;;;5051053;28;20437;-68
2021/11/25 14:13:37;;;;;;;20.00;13.37;;;;;;;;;;5047487;28;20421;-70
2021/11/25 14:16:13;;;;;;;18.27;12.73;;;;;;;;;;5050350;28;20830;-67
2021/11/25 14:18:39;;;;;;;20.97;13.20;;;;;;;;;;5052983;28;20479;-69
2021/11/25 14:21:06;;;;;;;21.70;13.90;;;;;;;;;;5049904;28;20450;-69
2021/11/25 14:23:32;;;;;;;26.50;15.33;;;;;;;;;;5050163;28;20839;-70
2021/11/25 14:26:13;;;;;;;21.07;13.50;;;;;;;;;;5043669;28;20421;-67
2021/11/25 14:31:26;;;;;;;25.73;15.63;;;;;;;;;;5047933;28;20254;-68
2021/11/25 14:33:54;;;;;;;25.47;14.30;;;;;;;;;;5050948;28;20426;-67
2021/11/25 14:36:30;;;;;;;27.10;14.40;;;;;;;;;;5052233;28;20416;-67